createdAt,value
2023-05-14T00:01:33.233Z,102323.75
2023-05-14T00:04:01.867Z,102322.13
2023-05-14T00:06:30.324Z,102319.53
2023-05-14T00:09:00.024Z,102308.09
2023-05-14T00:11:28.202Z,102312.69
2023-05-14T00:13:56.493Z,102320.03
2023-05-14T00:16:25.412Z,102311.94
2023-05-14T00:18:54.076Z,102316.25
2023-05-14T00:21:23.068Z,102290.56
2023-05-14T00:23:51.361Z,102309.66
2023-05-14T00:26:21.577Z,102310.06
2023-05-14T00:28:49.884Z,102304.78
2023-05-14T00:31:18.110Z,102303.88
2023-05-14T00:33:46.675Z,102297.53
2023-05-14T00:36:15.254Z,102303.06
2023-05-14T00:38:46.055Z,102301.31
2023-05-14T00:41:14.365Z,102297.91
2023-05-14T00:43:44.455Z,102285.63
2023-05-14T00:46:13.748Z,102286.47
2023-05-14T00:48:42.496Z,102296.91
2023-05-14T00:51:11.189Z,102293.19
2023-05-14T00:53:39.637Z,102292.19
2023-05-14T00:56:08.420Z,102295.75
2023-05-14T00:58:36.824Z,102284.97
2023-05-14T01:01:06.858Z,102290.31
2023-05-14T01:03:35.742Z,102286.84
2023-05-14T01:06:13.720Z,102265.81
2023-05-14T01:08:51.940Z,102285.22
2023-05-14T01:11:26.285Z,102281.91
2023-05-14T01:14:04.683Z,102278.59
2023-05-14T01:16:35.696Z,102281.28
2023-05-14T01:19:06.752Z,102275.97
2023-05-14T01:21:40.595Z,102283.06
2023-05-14T01:24:12.076Z,102282.16
2023-05-14T01:26:41.159Z,102261.03
2023-05-14T01:29:15.364Z,102279.44
2023-05-14T01:31:47.436Z,102287.59
2023-05-14T01:34:19.221Z,102284.13
2023-05-14T01:36:52.699Z,102282.31
2023-05-14T01:39:21.454Z,102273.44
2023-05-14T01:41:50.997Z,102280.56
2023-05-14T01:44:28.048Z,102276.97
2023-05-14T01:46:56.787Z,102265.19
2023-05-14T01:49:25.356Z,102250.28
2023-05-14T01:51:55.816Z,102264.25
2023-05-14T01:54:24.091Z,102272.16
2023-05-14T01:56:52.687Z,102244.84
2023-05-14T01:59:21.206Z,102254.50
2023-05-14T02:01:49.452Z,102257.41
2023-05-14T02:04:17.803Z,102273.34
2023-05-14T02:06:46.099Z,102270.78
2023-05-14T02:09:15.968Z,102262.81
2023-05-14T02:11:44.440Z,102262.75
2023-05-14T02:14:12.866Z,102268.00
2023-05-14T02:16:41.397Z,102266.13
2023-05-14T02:19:10.100Z,102268.00
2023-05-14T02:21:38.282Z,102264.44
2023-05-14T02:24:06.890Z,102239.09
2023-05-14T02:26:36.496Z,102259.28
2023-05-14T02:29:04.823Z,102237.16
2023-05-14T02:31:33.393Z,102250.28
2023-05-14T02:34:05.433Z,102255.63
2023-05-14T02:36:34.280Z,102265.44
2023-05-14T02:39:04.758Z,102257.28
2023-05-14T02:41:32.934Z,102254.03
2023-05-14T02:44:03.246Z,102259.84
2023-05-14T02:46:35.496Z,102258.16
2023-05-14T02:49:04.445Z,102255.63
2023-05-14T02:51:35.751Z,102263.88
2023-05-14T02:54:03.892Z,102256.53
2023-05-14T02:56:32.450Z,102256.41
2023-05-14T02:59:00.721Z,102249.47
2023-05-14T03:01:32.638Z,102247.97
2023-05-14T03:04:01.896Z,102244.09
2023-05-14T03:06:30.165Z,102244.19
2023-05-14T03:08:58.295Z,102242.31
2023-05-14T03:11:26.767Z,102233.50
2023-05-14T03:13:55.153Z,102246.22
2023-05-14T03:16:23.715Z,102241.94
2023-05-14T03:18:53.970Z,102234.69
2023-05-14T03:21:22.110Z,102238.75
2023-05-14T03:23:50.663Z,102215.75
2023-05-14T03:26:19.798Z,102238.66
2023-05-14T03:28:47.918Z,102238.69
2023-05-14T03:31:16.145Z,102235.06
2023-05-14T03:33:44.757Z,102236.75
2023-05-14T03:36:14.809Z,102221.75
2023-05-14T03:38:43.287Z,102230.59
2023-05-14T03:41:11.774Z,102229.66
2023-05-14T03:43:40.140Z,102229.75
2023-05-14T03:46:08.348Z,102229.50
2023-05-14T03:48:36.993Z,102211.13
2023-05-14T03:51:05.480Z,102226.03
2023-05-14T03:53:35.474Z,102225.94
2023-05-14T03:56:04.110Z,102218.81
2023-05-14T03:58:35.189Z,102193.28
2023-05-14T04:01:03.801Z,102216.97
2023-05-14T04:03:34.869Z,102209.00
2023-05-14T04:06:03.348Z,102206.53
2023-05-14T04:08:31.699Z,102207.59
2023-05-14T04:11:01.446Z,102210.22
2023-05-14T04:13:30.137Z,102204.94
2023-05-14T04:15:58.992Z,102201.41
2023-05-14T04:18:27.555Z,102206.81
2023-05-14T04:20:55.884Z,102194.25
2023-05-14T04:23:24.235Z,102172.81
2023-05-14T04:25:52.505Z,102203.38
2023-05-14T04:28:22.262Z,102188.09
2023-05-14T04:30:50.884Z,102191.56
2023-05-14T04:33:19.367Z,102188.09
2023-05-14T04:35:48.426Z,102186.72
2023-05-14T04:38:16.615Z,102184.88
2023-05-14T04:40:45.081Z,102187.41
2023-05-14T04:43:14.041Z,102184.13
2023-05-14T04:45:43.752Z,102188.78
2023-05-14T04:48:12.715Z,102183.34
2023-05-14T04:50:40.925Z,102193.94
2023-05-14T04:53:09.387Z,102193.50
2023-05-14T04:55:37.714Z,102185.34
2023-05-14T04:58:05.832Z,102188.59
2023-05-14T05:00:34.468Z,102184.00
2023-05-14T05:03:07.063Z,102183.00
2023-05-14T05:05:35.488Z,102185.28
2023-05-14T05:08:03.811Z,102187.22
2023-05-14T05:10:35.009Z,102179.50
2023-05-14T05:13:03.409Z,102165.16
2023-05-14T05:15:34.177Z,102188.69
2023-05-14T05:18:03.364Z,102180.53
2023-05-14T05:20:33.864Z,102185.97
2023-05-14T05:23:02.637Z,102182.50
2023-05-14T05:25:31.496Z,102174.53
2023-05-14T05:27:59.626Z,102178.94
2023-05-14T05:30:27.875Z,102178.75
2023-05-14T05:32:57.366Z,102162.50
2023-05-14T05:35:25.605Z,102183.78
2023-05-14T05:37:56.064Z,102178.28
2023-05-14T05:40:25.030Z,102165.81
2023-05-14T05:42:53.706Z,102167.41
2023-05-14T05:45:22.123Z,102154.81
2023-05-14T05:47:50.451Z,102156.66
2023-05-14T05:50:19.964Z,102156.78
2023-05-14T05:52:48.827Z,102131.94
2023-05-14T05:55:20.121Z,102154.13
2023-05-14T05:57:48.231Z,102146.19
2023-05-14T06:00:17.581Z,102151.09
2023-05-14T06:02:46.288Z,102149.25
2023-05-14T06:05:14.977Z,102143.78
2023-05-14T06:07:43.163Z,102143.84
2023-05-14T06:10:11.922Z,102136.81
2023-05-14T06:12:41.753Z,102143.78
2023-05-14T06:15:10.456Z,102134.63
2023-05-14T06:17:38.717Z,102129.91
2023-05-14T06:20:09.086Z,102128.63
2023-05-14T06:22:40.395Z,102124.94
2023-05-14T06:25:09.890Z,102130.22
2023-05-14T06:27:38.226Z,102125.69
2023-05-14T06:30:09.292Z,102105.38
2023-05-14T06:32:37.461Z,102128.94
2023-05-14T06:35:06.613Z,102134.16
2023-05-14T06:37:35.271Z,102127.91
2023-05-14T06:40:03.813Z,102137.91
2023-05-14T06:42:34.899Z,102127.31
2023-05-14T06:45:03.338Z,102141.41
2023-05-14T06:47:33.522Z,102144.44
2023-05-14T06:50:02.183Z,102141.53
2023-05-14T06:52:30.617Z,102143.66
2023-05-14T06:54:59.336Z,102130.53
2023-05-14T06:57:28.234Z,102140.19
2023-05-14T06:59:58.722Z,102133.00
2023-05-14T07:02:27.050Z,102117.28
2023-05-14T07:04:56.834Z,102136.06
2023-05-14T07:07:24.937Z,102128.78
2023-05-14T07:09:53.134Z,102133.25
2023-05-14T07:12:21.392Z,102111.91
2023-05-14T07:14:50.120Z,102100.22
2023-05-14T07:17:18.543Z,102131.84
2023-05-14T07:19:47.842Z,102132.16
2023-05-14T07:22:17.459Z,102117.25
2023-05-14T07:24:46.032Z,102122.16
2023-05-14T07:27:14.560Z,102125.97
2023-05-14T07:29:42.661Z,102108.81
2023-05-14T07:32:15.574Z,102119.19
2023-05-14T07:34:44.459Z,102131.59
2023-05-14T07:37:12.691Z,102133.19
2023-05-14T07:39:42.529Z,102125.88
2023-05-14T07:42:12.488Z,102133.19
2023-05-14T07:44:43.653Z,102125.00
2023-05-14T07:47:12.232Z,102128.47
2023-05-14T07:49:40.972Z,102127.72
2023-05-14T07:52:09.878Z,102131.44
2023-05-14T07:54:38.075Z,102124.34
2023-05-14T07:57:08.113Z,102128.94
2023-05-14T07:59:36.489Z,102124.47
2023-05-14T08:02:05.030Z,102134.22
2023-05-14T08:04:33.832Z,102142.13
2023-05-14T08:07:02.429Z,102142.53
2023-05-14T08:09:30.879Z,102138.16
2023-05-14T08:11:59.011Z,102141.22
2023-05-14T08:14:28.797Z,102123.28
2023-05-14T08:16:57.667Z,102115.78
2023-05-14T08:19:27.445Z,102117.34
2023-05-14T08:21:56.254Z,102120.97
2023-05-14T08:24:24.828Z,102117.88
2023-05-14T08:26:53.256Z,102107.28
2023-05-14T08:29:21.811Z,102104.97
2023-05-14T08:31:53.344Z,102104.22
2023-05-14T08:34:22.573Z,102101.22
2023-05-14T08:36:51.031Z,102106.78
2023-05-14T08:39:19.545Z,102083.75
2023-05-14T08:41:48.502Z,102076.53
2023-05-14T08:44:21.671Z,102065.88
2023-05-14T08:46:52.760Z,102059.78
2023-05-14T08:49:30.112Z,102048.59
2023-05-14T08:51:59.500Z,102074.78
2023-05-14T08:54:30.181Z,102066.88
2023-05-14T08:56:59.357Z,102068.59
2023-05-14T08:59:30.173Z,102076.88
2023-05-14T09:02:04.373Z,102062.63
2023-05-14T09:04:34.254Z,102061.88
2023-05-14T09:07:04.710Z,102074.25
2023-05-14T09:09:33.430Z,102070.78
2023-05-14T09:12:03.672Z,102072.88
2023-05-14T09:14:32.028Z,102072.28
2023-05-14T09:17:02.057Z,102073.50
2023-05-14T09:19:30.724Z,102069.38
2023-05-14T09:22:00.336Z,102050.25
2023-05-14T09:24:29.754Z,102046.44
2023-05-14T09:26:59.779Z,102078.22
2023-05-14T09:29:31.977Z,102065.38
2023-05-14T09:32:07.602Z,102077.41
2023-05-14T09:34:38.118Z,102085.22
2023-05-14T09:37:07.909Z,102065.38
2023-05-14T09:39:38.160Z,102058.03
2023-05-14T09:42:07.131Z,102071.19
2023-05-14T09:44:36.545Z,102071.88
2023-05-14T09:47:10.329Z,102050.50
2023-05-14T09:49:41.383Z,102074.44
2023-05-14T09:52:09.698Z,102069.75
2023-05-14T09:54:41.937Z,102066.66
2023-05-14T09:57:10.356Z,102066.75
2023-05-14T09:59:39.340Z,102046.25
2023-05-14T10:02:18.375Z,102049.34
2023-05-14T10:04:46.977Z,102055.19
2023-05-14T10:07:16.113Z,102045.47
2023-05-14T10:09:48.239Z,102051.75
2023-05-14T10:12:21.190Z,102043.44
2023-05-14T10:14:55.125Z,102024.38
2023-05-14T10:17:32.909Z,102030.53
2023-05-14T10:20:04.632Z,102042.16
2023-05-14T10:22:36.815Z,102043.97
2023-05-14T10:25:06.505Z,102038.44
2023-05-14T10:27:35.664Z,102035.75
2023-05-14T10:30:19.950Z,102025.44
2023-05-14T10:32:49.812Z,102017.09
2023-05-14T10:35:20.825Z,102018.56
2023-05-14T10:37:53.038Z,101993.56
2023-05-14T10:40:26.514Z,102020.41
2023-05-14T10:42:56.075Z,102017.91
2023-05-14T10:45:25.358Z,102006.03
2023-05-14T10:47:56.146Z,102001.03
2023-05-14T10:50:24.789Z,102014.88
2023-05-14T10:52:55.614Z,102014.50
2023-05-14T10:55:24.197Z,101966.94
2023-05-14T10:57:53.895Z,102002.31
2023-05-14T11:00:27.850Z,101975.88
2023-05-14T11:02:59.012Z,101978.81
2023-05-14T11:05:27.876Z,101995.75
2023-05-14T11:07:58.741Z,101995.31
2023-05-14T11:10:30.073Z,101976.44
2023-05-14T11:12:59.052Z,101973.06
2023-05-14T11:15:28.477Z,101984.28
2023-05-14T11:17:58.135Z,101976.91
2023-05-14T11:20:26.607Z,101968.59
2023-05-14T11:22:55.429Z,101970.94
2023-05-14T11:25:26.925Z,101965.97
2023-05-14T11:27:59.426Z,101956.50
2023-05-14T11:30:29.571Z,101955.91
2023-05-14T11:33:01.790Z,101950.69
2023-05-14T11:35:30.584Z,101943.13
2023-05-14T11:37:59.177Z,101949.78
2023-05-14T11:40:28.387Z,101945.56
2023-05-14T11:42:57.626Z,101921.84
2023-05-14T11:45:26.890Z,101949.66
2023-05-14T11:47:55.746Z,101939.31
2023-05-14T11:50:26.267Z,101937.78
2023-05-14T11:52:58.605Z,101920.34
2023-05-14T11:55:27.390Z,101919.75
2023-05-14T11:57:58.719Z,101919.78
2023-05-14T12:00:28.241Z,101922.53
2023-05-14T12:02:59.520Z,101913.50
2023-05-14T12:05:29.253Z,101917.28
2023-05-14T12:07:57.663Z,101916.44
2023-05-14T12:10:26.221Z,101909.59
2023-05-14T12:12:59.043Z,101916.44
2023-05-14T12:15:30.476Z,101912.22
2023-05-14T12:17:59.147Z,101917.00
2023-05-14T12:20:33.068Z,101908.31
2023-05-14T12:23:01.814Z,101913.81
2023-05-14T12:25:31.044Z,101908.13
2023-05-14T12:27:59.279Z,101926.25
2023-05-14T12:30:30.541Z,101920.53
2023-05-14T12:32:58.947Z,101916.88
2023-05-14T12:35:28.897Z,101937.56
2023-05-14T12:37:57.144Z,101945.38
2023-05-14T12:40:27.771Z,101937.38
2023-05-14T12:42:56.981Z,101946.38
2023-05-14T12:45:25.887Z,101938.56
2023-05-14T12:47:54.517Z,101938.78
2023-05-14T12:50:23.084Z,101942.84
2023-05-14T12:52:53.124Z,101942.44
2023-05-14T12:55:21.640Z,101945.63
2023-05-14T12:57:50.104Z,101928.72
2023-05-14T13:00:19.315Z,101933.50
2023-05-14T13:02:47.671Z,101925.22
2023-05-14T13:05:16.076Z,101896.06
2023-05-14T13:07:44.375Z,101916.97
2023-05-14T13:10:14.267Z,101918.16
2023-05-14T13:12:42.611Z,101913.06
2023-05-14T13:15:12.303Z,101904.84
2023-05-14T13:17:42.345Z,101894.41
2023-05-14T13:20:13.758Z,101885.09
2023-05-14T13:22:42.261Z,101890.09
2023-05-14T13:25:13.699Z,101890.88
2023-05-14T13:27:43.605Z,101891.53
2023-05-14T13:30:12.734Z,101890.50
2023-05-14T13:32:43.470Z,101901.28
2023-05-14T13:35:15.077Z,101892.84
2023-05-14T13:37:44.834Z,101874.47
2023-05-14T13:40:14.040Z,101886.69
2023-05-14T13:42:43.719Z,101898.44
2023-05-14T13:45:15.685Z,101896.44
2023-05-14T13:47:44.432Z,101905.09
2023-05-14T13:50:14.907Z,101904.75
2023-05-14T13:52:46.333Z,101860.72
2023-05-14T13:55:15.510Z,101894.31
2023-05-14T13:57:45.317Z,101898.91
2023-05-14T14:00:16.090Z,101886.16
2023-05-14T14:02:44.811Z,101889.28
2023-05-14T14:05:13.276Z,101893.97
2023-05-14T14:07:42.296Z,101865.97
2023-05-14T14:10:12.241Z,101861.91
2023-05-14T14:12:41.003Z,101879.97
2023-05-14T14:15:12.555Z,101883.47
2023-05-14T14:17:42.353Z,101880.09
2023-05-14T14:20:11.634Z,101879.19
2023-05-14T14:22:39.860Z,101892.91
2023-05-14T14:25:09.156Z,101870.53
2023-05-14T14:27:38.863Z,101878.22
2023-05-14T14:30:09.598Z,101874.47
2023-05-14T14:32:39.444Z,101870.31
2023-05-14T14:35:08.309Z,101880.72
2023-05-14T14:37:36.528Z,101864.13
2023-05-14T14:40:09.624Z,101874.41
2023-05-14T14:42:38.476Z,101861.28
2023-05-14T14:45:07.820Z,101870.03
2023-05-14T14:47:46.132Z,101878.97
2023-05-14T14:50:16.323Z,101864.38
2023-05-14T14:52:46.138Z,101841.25
2023-05-14T14:55:17.519Z,101865.13
2023-05-14T14:57:45.657Z,101856.97
2023-05-14T15:00:16.001Z,101849.16
2023-05-14T15:02:46.257Z,101850.63
2023-05-14T15:05:16.886Z,101853.97
2023-05-14T15:07:45.509Z,101842.41
2023-05-14T15:10:13.667Z,101835.56
2023-05-14T15:12:42.020Z,101833.53
2023-05-14T15:15:12.580Z,101828.41
2023-05-14T15:17:41.249Z,101797.09
2023-05-14T15:20:12.469Z,101821.72
2023-05-14T15:22:40.997Z,101820.66
2023-05-14T15:25:09.832Z,101818.66
2023-05-14T15:27:40.993Z,101823.13
2023-05-14T15:30:10.214Z,101820.13
2023-05-14T15:32:41.825Z,101803.31
2023-05-14T15:35:11.735Z,101808.53
2023-05-14T15:37:41.191Z,101808.69
2023-05-14T15:40:13.842Z,101789.72
2023-05-14T15:42:44.792Z,101791.63
2023-05-14T15:45:14.431Z,101784.34
2023-05-14T15:47:44.298Z,101799.69
2023-05-14T15:50:15.188Z,101794.84
2023-05-14T15:52:43.742Z,101791.84
2023-05-14T15:55:12.437Z,101789.72
2023-05-14T15:57:43.737Z,101778.38
2023-05-14T16:00:13.306Z,101766.56
2023-05-14T16:02:41.638Z,101777.72
2023-05-14T16:05:10.901Z,101770.72
2023-05-14T16:07:41.139Z,101734.78
2023-05-14T16:10:10.201Z,101734.78
2023-05-14T16:12:38.756Z,101735.63
2023-05-14T16:15:10.659Z,101753.03
2023-05-14T16:17:39.141Z,101753.47
2023-05-14T16:20:08.271Z,101759.44
2023-05-14T16:22:36.897Z,101739.81
2023-05-14T16:25:07.343Z,101744.53
2023-05-14T16:27:36.628Z,101719.72
2023-05-14T16:30:06.155Z,101727.72
2023-05-14T16:32:34.529Z,101715.56
2023-05-14T16:35:06.299Z,101714.03
2023-05-14T16:37:34.799Z,101709.81
2023-05-14T16:40:11.719Z,101712.44
2023-05-14T16:42:40.524Z,101694.72
2023-05-14T16:45:10.674Z,101661.28
2023-05-14T16:47:39.075Z,101709.19
2023-05-14T16:50:09.046Z,101703.44
2023-05-14T16:52:37.309Z,101704.22
2023-05-14T16:55:08.301Z,101703.25
2023-05-14T16:57:36.980Z,101702.09
2023-05-14T17:00:06.329Z,101670.22
2023-05-14T17:02:35.014Z,101666.31
2023-05-14T17:05:04.797Z,101688.50
2023-05-14T17:07:33.578Z,101662.78
2023-05-14T17:10:02.390Z,101683.63
2023-05-14T17:12:34.941Z,101655.69
2023-05-14T17:15:06.200Z,101658.59
2023-05-14T17:17:36.565Z,101676.75
2023-05-14T17:20:08.449Z,101661.50
2023-05-14T17:22:37.089Z,101677.56
2023-05-14T17:25:09.103Z,101678.72
2023-05-14T17:27:42.064Z,101651.63
2023-05-14T17:30:11.113Z,101676.19
2023-05-14T17:32:39.373Z,101668.16
2023-05-14T17:35:09.895Z,101664.81
2023-05-14T17:37:38.453Z,101673.53
2023-05-14T17:40:11.324Z,101660.19
2023-05-14T17:42:41.580Z,101645.50
2023-05-14T17:48:00.141Z,101672.94
2023-05-14T17:50:29.030Z,101626.22
2023-05-14T17:52:58.895Z,101595.41
2023-05-14T17:55:27.900Z,101660.69
2023-05-14T17:58:01.408Z,101665.25
2023-05-14T18:00:30.966Z,101666.53
2023-05-14T18:03:02.793Z,101671.75
2023-05-14T18:05:32.198Z,101664.81
2023-05-14T18:08:01.196Z,101672.31
2023-05-14T18:10:31.613Z,101668.31
2023-05-14T18:13:01.637Z,101658.44
2023-05-14T18:15:33.900Z,101674.50
2023-05-14T18:18:05.467Z,101677.06
2023-05-14T18:20:35.534Z,101674.81
2023-05-14T18:23:04.504Z,101671.13
2023-05-14T18:25:36.659Z,101655.84
2023-05-14T18:28:08.110Z,101675.13
2023-05-14T18:30:39.967Z,101659.44
2023-05-14T18:33:11.731Z,101677.69
2023-05-14T18:35:48.559Z,101668.16
2023-05-14T18:38:20.191Z,101627.13
2023-05-14T18:40:49.627Z,101673.56
2023-05-14T18:43:19.958Z,101650.81
2023-05-14T18:45:49.028Z,101684.09
2023-05-14T18:48:18.019Z,101679.91
2023-05-14T18:50:46.764Z,101678.31
2023-05-14T18:53:15.025Z,101682.72
2023-05-14T18:55:43.323Z,101690.78
2023-05-14T18:58:14.719Z,101687.53
2023-05-14T19:00:50.387Z,101681.28
2023-05-14T19:03:20.761Z,101691.38
2023-05-14T19:05:50.769Z,101685.53
2023-05-14T19:08:19.301Z,101695.19
2023-05-14T19:10:56.043Z,101676.84
2023-05-14T19:13:24.234Z,101686.81
2023-05-14T19:15:54.110Z,101688.56
2023-05-14T19:18:28.728Z,101675.09
2023-05-14T19:20:57.679Z,101684.81
2023-05-14T19:23:26.321Z,101682.84
2023-05-14T19:25:54.933Z,101689.81
2023-05-14T19:28:26.168Z,101681.91
2023-05-14T19:30:57.736Z,101686.22
2023-05-14T19:33:27.007Z,101681.09
2023-05-14T19:35:55.441Z,101668.16
2023-05-14T19:38:23.916Z,101660.16
2023-05-14T19:40:53.714Z,101641.91
2023-05-14T19:43:22.781Z,101676.44
2023-05-14T19:45:51.437Z,101689.25
2023-05-14T19:48:21.527Z,101684.09
2023-05-14T19:50:49.933Z,101647.28
2023-05-14T19:53:18.199Z,101653.72
2023-05-14T19:55:46.570Z,101686.31
2023-05-14T19:58:18.098Z,101692.97
2023-05-14T20:00:47.687Z,101694.50
2023-05-14T20:03:15.966Z,101675.44
2023-05-14T20:05:47.012Z,101707.06
2023-05-14T20:08:17.044Z,101699.47
2023-05-14T20:10:45.779Z,101698.09
2023-05-14T20:13:16.464Z,101671.09
2023-05-14T20:15:44.678Z,101686.75
2023-05-14T20:18:13.382Z,101672.06
2023-05-14T20:20:43.147Z,101692.13
2023-05-14T20:23:12.895Z,101651.22
2023-05-14T20:25:41.512Z,101692.19
2023-05-14T20:28:09.929Z,101671.09
2023-05-14T20:30:38.378Z,101682.28
2023-05-14T20:33:09.926Z,101672.38
2023-05-14T20:35:38.496Z,101639.53
2023-05-14T20:38:07.209Z,101591.56
2023-05-14T20:40:40.719Z,101653.75
2023-05-14T20:43:09.078Z,101666.09
2023-05-14T20:45:39.457Z,101664.63
2023-05-14T20:48:10.373Z,101656.75
2023-05-14T20:50:38.695Z,101660.72
2023-05-14T20:53:07.269Z,101659.00
2023-05-14T20:55:37.489Z,101650.34
2023-05-14T20:58:05.912Z,101652.28
2023-05-14T21:00:34.229Z,101626.09
2023-05-14T21:03:08.395Z,101661.41
2023-05-14T21:05:38.566Z,101608.09
2023-05-14T21:08:07.491Z,101643.81
2023-05-14T21:10:37.681Z,101577.69
2023-05-14T21:13:07.736Z,101650.06
2023-05-14T21:15:36.093Z,101648.44
2023-05-14T21:18:04.404Z,101606.88
2023-05-14T21:20:33.495Z,101644.31
2023-05-14T21:23:01.868Z,101635.25
2023-05-14T21:25:30.719Z,101638.16
2023-05-14T21:28:03.089Z,101647.91
2023-05-14T21:30:33.889Z,101633.88
2023-05-14T21:33:03.674Z,101599.25
2023-05-14T21:35:34.124Z,101628.91
2023-05-14T21:38:04.416Z,101632.25
2023-05-14T21:40:33.249Z,101577.03
2023-05-14T21:43:05.040Z,101584.97
2023-05-14T21:45:33.819Z,101614.56
2023-05-14T21:48:02.587Z,101621.84
2023-05-14T21:50:34.133Z,101599.09
2023-05-14T21:53:02.786Z,101616.41
2023-05-14T21:55:31.846Z,101611.66
2023-05-14T21:58:03.111Z,101599.66
2023-05-14T22:00:34.985Z,101606.38
2023-05-14T22:03:03.362Z,101611.06
2023-05-14T22:05:32.473Z,101614.66
2023-05-14T22:08:02.726Z,101583.22
2023-05-14T22:10:35.732Z,101606.56
2023-05-14T22:13:04.236Z,101542.75
2023-05-14T22:15:33.844Z,101596.75
2023-05-14T22:18:03.447Z,101603.75
2023-05-14T22:20:32.438Z,101605.66
2023-05-14T22:23:01.159Z,101582.56
2023-05-14T22:25:29.366Z,101596.75
2023-05-14T22:27:57.665Z,101592.28
2023-05-14T22:30:25.914Z,101593.81
2023-05-14T22:32:55.813Z,101594.72
2023-05-14T22:35:24.570Z,101592.28
2023-05-14T22:37:53.390Z,101578.69
2023-05-14T22:40:22.002Z,101594.53
2023-05-14T22:42:50.400Z,101601.75
2023-05-14T22:45:18.762Z,101592.66
2023-05-14T22:47:46.988Z,101581.56
2023-05-14T22:50:17.056Z,101568.94
2023-05-14T22:52:45.435Z,101580.16
2023-05-14T22:55:13.888Z,101582.59
2023-05-14T22:57:42.171Z,101585.28
2023-05-14T23:00:11.282Z,101579.81
2023-05-14T23:02:39.758Z,101572.91
2023-05-14T23:05:10.201Z,101567.41
2023-05-14T23:07:40.835Z,101576.44
2023-05-14T23:10:09.909Z,101557.13
2023-05-14T23:12:38.125Z,101570.28
2023-05-14T23:15:09.599Z,101559.53
2023-05-14T23:17:39.308Z,101556.03
2023-05-14T23:20:10.732Z,101563.59
2023-05-14T23:22:40.938Z,101560.56
2023-05-14T23:25:10.009Z,101558.56
2023-05-14T23:27:38.897Z,101551.41
2023-05-14T23:30:08.733Z,101551.41
2023-05-14T23:32:40.042Z,101551.84
2023-05-14T23:35:08.715Z,101541.25
2023-05-14T23:37:41.904Z,101514.47
2023-05-14T23:40:12.615Z,101495.53
2023-05-14T23:42:40.969Z,101521.75
2023-05-14T23:45:10.676Z,101540.75
2023-05-14T23:47:39.520Z,101543.63
2023-05-14T23:50:11.774Z,101534.00
2023-05-14T23:52:40.357Z,101502.63
2023-05-14T23:55:09.764Z,101529.09
2023-05-14T23:57:39.616Z,101508.19
